createdAt,value
2019-01-23T00:01:29.854Z,6.38
2019-01-23T00:04:35.560Z,6.75
2019-01-23T00:07:41.259Z,6.68
2019-01-23T00:10:46.987Z,6.57
2019-01-23T00:13:52.907Z,6.30
2019-01-23T00:16:58.829Z,6.51
2019-01-23T00:20:05.034Z,6.56
2019-01-23T00:23:10.722Z,6.79
2019-01-23T00:26:16.427Z,6.90
2019-01-23T00:29:22.230Z,6.71
2019-01-23T00:32:28.299Z,6.92
2019-01-23T00:35:34.011Z,7.03
2019-01-23T00:38:39.730Z,7.03
2019-01-23T00:41:45.554Z,7.04
2019-01-23T00:44:51.266Z,6.90
2019-01-23T00:47:56.971Z,7.05
2019-01-23T00:51:02.678Z,7.13
2019-01-23T00:54:08.603Z,7.01
2019-01-23T00:57:14.301Z,6.93
2019-01-23T01:00:22.677Z,6.74
2019-01-23T01:03:28.377Z,7.02
2019-01-23T01:06:34.235Z,7.10
2019-01-23T01:09:39.950Z,6.93
2019-01-23T01:12:45.766Z,6.68
2019-01-23T01:15:52.585Z,6.70
2019-01-23T01:18:58.413Z,6.83
2019-01-23T01:22:04.444Z,6.90
2019-01-23T01:25:12.511Z,6.79
2019-01-23T01:28:18.316Z,6.85
2019-01-23T01:31:24.127Z,6.90
2019-01-23T01:34:29.934Z,7.13
2019-01-23T01:37:35.664Z,7.10
2019-01-23T01:40:41.484Z,7.03
2019-01-23T01:43:47.214Z,6.68
2019-01-23T01:46:53.008Z,6.89
2019-01-23T01:49:58.893Z,6.87
2019-01-23T01:53:04.729Z,7.00
2019-01-23T01:56:10.506Z,7.04
2019-01-23T01:59:16.252Z,6.86
2019-01-23T02:02:22.085Z,6.90
2019-01-23T02:05:27.930Z,6.75
2019-01-23T02:08:33.631Z,6.14
2019-01-23T02:11:39.337Z,6.57
2019-01-23T02:14:45.062Z,6.69
2019-01-23T02:17:51.083Z,6.58
2019-01-23T02:20:57.237Z,6.37
2019-01-23T02:24:02.921Z,6.40
2019-01-23T02:27:08.649Z,6.47
2019-01-23T02:30:15.858Z,6.30
2019-01-23T02:33:21.681Z,6.56
2019-01-23T02:36:27.432Z,6.52
2019-01-23T02:39:33.136Z,6.69
2019-01-23T02:42:38.867Z,6.84
2019-01-23T02:45:44.568Z,6.86
2019-01-23T02:48:51.385Z,6.72
2019-01-23T02:51:57.081Z,6.84
2019-01-23T02:55:02.893Z,6.88
2019-01-23T02:58:08.700Z,6.65
2019-01-23T03:01:14.401Z,6.88
2019-01-23T03:04:20.108Z,6.74
2019-01-23T03:07:27.273Z,6.66
2019-01-23T03:10:33.124Z,6.46
2019-01-23T03:13:38.812Z,6.57
2019-01-23T03:16:44.629Z,6.44
2019-01-23T03:19:50.385Z,6.49
2019-01-23T03:22:56.089Z,6.51
2019-01-23T03:26:01.796Z,6.65
2019-01-23T03:29:07.584Z,6.78
2019-01-23T03:32:13.399Z,6.82
2019-01-23T03:35:19.491Z,6.81
2019-01-23T03:38:25.236Z,7.03
2019-01-23T03:41:30.973Z,6.72
2019-01-23T03:44:36.686Z,6.87
2019-01-23T03:47:42.724Z,7.00
2019-01-23T03:50:48.558Z,7.13
2019-01-23T03:53:54.296Z,6.95
2019-01-23T03:57:00.115Z,7.11
2019-01-23T04:00:07.805Z,7.17
2019-01-23T04:03:13.612Z,6.99
2019-01-23T04:06:19.345Z,7.11
2019-01-23T04:09:26.042Z,7.03
2019-01-23T04:12:31.766Z,7.01
2019-01-23T04:15:37.653Z,6.95
2019-01-23T04:18:43.487Z,7.00
2019-01-23T04:21:49.187Z,7.01
2019-01-23T04:24:54.894Z,6.58
2019-01-23T04:28:00.609Z,6.89
2019-01-23T04:31:06.448Z,6.97
2019-01-23T04:34:12.162Z,6.52
2019-01-23T04:37:17.900Z,6.39
2019-01-23T04:40:23.578Z,6.58
2019-01-23T04:43:29.287Z,6.83
2019-01-23T04:46:34.979Z,6.65
2019-01-23T04:49:40.702Z,6.53
2019-01-23T04:53:07.299Z,6.54
2019-01-23T04:56:14.088Z,6.37
2019-01-23T04:59:19.814Z,6.64
2019-01-23T05:02:25.542Z,6.57
2019-01-23T05:05:31.347Z,6.70
2019-01-23T05:08:37.070Z,6.77
2019-01-23T05:11:42.798Z,6.88
2019-01-23T05:14:48.534Z,6.54
2019-01-23T05:17:54.234Z,6.82
2019-01-23T05:20:59.939Z,7.05
2019-01-23T05:24:05.745Z,6.96
2019-01-23T05:27:11.468Z,6.96
2019-01-23T05:30:22.714Z,6.59
2019-01-23T05:33:28.427Z,6.94
2019-01-23T05:36:34.128Z,7.02
2019-01-23T05:39:39.857Z,7.06
2019-01-23T05:42:45.667Z,7.05
2019-01-23T05:45:51.521Z,7.19
2019-01-23T05:48:57.254Z,7.01
2019-01-23T05:52:03.003Z,6.88
2019-01-23T05:55:10.119Z,6.96
2019-01-23T05:58:15.828Z,7.06
2019-01-23T06:01:21.605Z,7.15
2019-01-23T06:04:27.411Z,7.22
2019-01-23T06:07:33.148Z,7.23
2019-01-23T06:10:38.990Z,7.41
2019-01-23T06:13:44.722Z,7.36
2019-01-23T06:16:50.459Z,7.11
2019-01-23T06:19:56.288Z,7.43
2019-01-23T06:23:02.175Z,7.50
2019-01-23T06:26:07.960Z,7.47
2019-01-23T06:29:13.695Z,7.47
2019-01-23T06:32:19.411Z,7.57
2019-01-23T06:35:25.228Z,7.51
2019-01-23T06:38:30.923Z,7.39
2019-01-23T06:41:36.640Z,7.40
2019-01-23T06:44:42.337Z,7.05
2019-01-23T06:47:49.910Z,6.92
2019-01-23T06:50:55.609Z,7.09
2019-01-23T06:54:01.301Z,6.90
2019-01-23T06:57:07.004Z,7.31
2019-01-23T07:00:17.950Z,7.31
2019-01-23T07:03:23.871Z,7.46
2019-01-23T07:06:29.591Z,7.58
2019-01-23T07:09:35.311Z,7.47
2019-01-23T07:12:41.273Z,7.57
2019-01-23T07:15:46.984Z,7.72
2019-01-23T07:18:53.287Z,7.67
2019-01-23T07:21:58.989Z,7.53
2019-01-23T07:25:05.548Z,7.64
2019-01-23T07:28:11.468Z,7.84
2019-01-23T07:31:17.276Z,7.63
2019-01-23T07:34:22.981Z,7.59
2019-01-23T07:37:28.698Z,7.61
2019-01-23T07:40:34.843Z,7.79
2019-01-23T07:43:40.559Z,7.71
2019-01-23T07:46:46.385Z,7.90
2019-01-23T07:49:52.081Z,7.91
2019-01-23T07:52:58.865Z,7.82
2019-01-23T07:56:04.675Z,7.89
2019-01-23T07:59:10.397Z,7.99
2019-01-23T08:02:16.115Z,8.08
2019-01-23T08:05:24.671Z,7.74
2019-01-23T08:08:30.393Z,8.14
2019-01-23T08:11:36.101Z,8.09
2019-01-23T08:14:42.261Z,8.06
2019-01-23T08:17:48.392Z,8.19
2019-01-23T08:20:54.215Z,8.33
2019-01-23T08:23:59.989Z,8.47
2019-01-23T08:27:07.104Z,8.21
2019-01-23T08:30:15.476Z,7.89
2019-01-23T08:33:21.285Z,8.30
2019-01-23T08:36:26.988Z,8.43
2019-01-23T08:39:32.692Z,8.15
2019-01-23T08:42:38.394Z,8.31
2019-01-23T08:45:44.105Z,7.79
2019-01-23T08:48:49.979Z,8.35
2019-01-23T08:51:55.684Z,8.63
2019-01-23T08:55:01.452Z,8.71
2019-01-23T08:58:08.061Z,8.27
2019-01-23T09:01:13.883Z,7.99
2019-01-23T09:04:19.713Z,8.14
2019-01-23T09:07:25.433Z,7.98
2019-01-23T09:10:31.382Z,8.20
2019-01-23T09:13:37.091Z,8.27
2019-01-23T09:16:44.031Z,8.44
2019-01-23T09:19:49.760Z,8.49
2019-01-23T09:22:55.567Z,8.49
2019-01-23T09:26:01.411Z,8.33
2019-01-23T09:29:07.575Z,8.44
2019-01-23T09:32:55.511Z,8.40
2019-01-23T09:36:41.065Z,8.45
2019-01-23T09:40:05.002Z,8.66
2019-01-23T09:43:50.629Z,8.02
2019-01-23T09:47:11.703Z,7.99
2019-01-23T09:50:35.522Z,8.14
2019-01-23T09:54:05.509Z,8.09
2019-01-23T09:57:11.260Z,8.04
2019-01-23T10:00:20.805Z,7.74
2019-01-23T10:03:26.634Z,8.31
2019-01-23T10:06:32.345Z,8.31
2019-01-23T10:09:39.220Z,8.41
2019-01-23T10:12:45.012Z,8.57
2019-01-23T10:15:53.985Z,8.73
2019-01-23T10:18:59.774Z,8.65
2019-01-23T10:22:05.782Z,8.75
2019-01-23T10:25:11.713Z,8.60
2019-01-23T10:28:17.414Z,8.60
2019-01-23T10:31:23.230Z,8.49
2019-01-23T10:34:28.957Z,8.41
2019-01-23T10:37:34.662Z,8.39
2019-01-23T10:40:40.374Z,8.42
2019-01-23T10:43:46.098Z,8.66
2019-01-23T10:46:51.924Z,8.48
2019-01-23T10:49:57.758Z,8.18
2019-01-23T10:53:03.556Z,7.99
2019-01-23T10:56:09.275Z,8.24
2019-01-23T10:59:14.962Z,8.07
2019-01-23T11:02:20.776Z,8.05
2019-01-23T11:05:27.819Z,8.07
2019-01-23T11:08:33.763Z,8.07
2019-01-23T11:11:39.482Z,8.17
2019-01-23T11:14:45.318Z,7.95
2019-01-23T11:17:51.254Z,8.10
2019-01-23T11:20:57.076Z,7.98
2019-01-23T11:24:03.000Z,8.45
2019-01-23T11:27:08.968Z,8.40
2019-01-23T11:30:18.160Z,8.23
2019-01-23T11:33:24.059Z,8.32
2019-01-23T11:36:30.853Z,8.42
2019-01-23T11:39:36.586Z,8.46
2019-01-23T11:42:42.306Z,8.52
2019-01-23T11:45:48.111Z,8.49
2019-01-23T11:48:53.816Z,8.62
2019-01-23T11:52:00.519Z,8.60
2019-01-23T11:55:07.416Z,8.54
2019-01-23T11:58:14.329Z,8.64
2019-01-23T12:01:20.259Z,8.35
2019-01-23T12:04:26.954Z,7.93
2019-01-23T12:07:32.719Z,7.97
2019-01-23T12:10:38.425Z,7.90
2019-01-23T12:13:44.225Z,7.80
2019-01-23T12:16:49.932Z,7.62
2019-01-23T12:19:55.663Z,7.72
2019-01-23T12:23:01.472Z,8.05
2019-01-23T12:26:07.300Z,8.17
2019-01-23T12:29:13.266Z,8.08
2019-01-23T12:32:18.958Z,8.37
2019-01-23T12:35:24.680Z,8.47
2019-01-23T12:38:30.402Z,8.33
2019-01-23T12:41:36.401Z,8.24
2019-01-23T12:44:42.330Z,8.46
2019-01-23T12:47:48.170Z,8.23
2019-01-23T12:50:53.893Z,8.49
2019-01-23T12:53:59.850Z,8.59
2019-01-23T12:57:05.664Z,8.36
2019-01-23T13:00:15.373Z,8.72
2019-01-23T13:03:21.199Z,8.73
2019-01-23T13:06:27.014Z,8.54
2019-01-23T13:09:32.726Z,8.37
2019-01-23T13:12:38.457Z,8.63
2019-01-23T13:15:44.172Z,8.49
2019-01-23T13:18:49.899Z,8.68
2019-01-23T13:21:55.605Z,8.71
2019-01-23T13:25:01.329Z,8.61
2019-01-23T13:28:07.679Z,8.83
2019-01-23T13:31:13.492Z,8.81
2019-01-23T13:34:19.319Z,8.78
2019-01-23T13:37:25.034Z,8.58
2019-01-23T13:40:33.788Z,8.51
2019-01-23T13:43:39.497Z,8.61
2019-01-23T13:46:45.307Z,8.27
2019-01-23T13:49:51.082Z,8.52
2019-01-23T13:52:56.907Z,8.29
2019-01-23T13:56:02.676Z,8.43
2019-01-23T13:59:08.536Z,7.87
2019-01-23T14:02:14.256Z,8.34
2019-01-23T14:05:20.188Z,8.46
2019-01-23T14:08:26.105Z,8.01
2019-01-23T14:11:31.832Z,8.40
2019-01-23T14:14:37.586Z,8.58
2019-01-23T14:17:43.412Z,8.50
2019-01-23T14:20:49.143Z,8.41
2019-01-23T14:23:54.977Z,8.34
2019-01-23T14:27:00.917Z,8.25
2019-01-23T14:30:10.022Z,8.10
2019-01-23T14:33:16.591Z,8.22
2019-01-23T14:36:22.343Z,8.26
2019-01-23T14:39:28.172Z,8.33
2019-01-23T14:42:34.156Z,8.41
2019-01-23T14:45:39.984Z,8.62
2019-01-23T14:48:45.720Z,8.34
2019-01-23T14:51:51.472Z,8.50
2019-01-23T14:54:57.204Z,8.54
2019-01-23T14:58:03.114Z,8.28
2019-01-23T15:01:08.913Z,8.61
2019-01-23T15:04:14.625Z,8.66
2019-01-23T15:07:20.376Z,8.26
2019-01-23T15:10:30.466Z,8.49
2019-01-23T15:13:36.184Z,8.57
2019-01-23T15:16:42.033Z,8.28
2019-01-23T15:19:47.836Z,8.31
2019-01-23T15:22:54.863Z,8.24
2019-01-23T15:26:00.588Z,7.93
2019-01-23T15:29:06.332Z,8.23
2019-01-23T15:32:17.247Z,8.02
2019-01-23T15:35:20.301Z,8.05
2019-01-23T15:38:26.026Z,8.17
2019-01-23T15:41:31.917Z,8.26
2019-01-23T15:44:37.668Z,8.42
2019-01-23T15:47:43.395Z,8.00
2019-01-23T15:50:49.123Z,8.25
2019-01-23T15:53:54.821Z,8.38
2019-01-23T15:57:00.542Z,8.25
2019-01-23T16:00:09.542Z,8.32
2019-01-23T16:03:15.346Z,8.21
2019-01-23T16:06:21.072Z,7.95
2019-01-23T16:09:26.968Z,8.14
2019-01-23T16:12:32.670Z,8.04
2019-01-23T16:15:38.601Z,7.85
2019-01-23T16:18:45.321Z,8.08
2019-01-23T16:21:51.388Z,8.37
2019-01-23T16:24:57.213Z,8.24
2019-01-23T16:28:03.078Z,7.76
2019-01-23T16:31:08.888Z,8.10
2019-01-23T16:34:14.706Z,8.16
2019-01-23T16:37:20.512Z,7.98
2019-01-23T16:40:26.320Z,8.03
2019-01-23T16:43:32.047Z,8.27
2019-01-23T16:46:37.776Z,8.31
2019-01-23T16:49:43.497Z,8.20
2019-01-23T16:52:49.423Z,8.41
2019-01-23T16:55:55.181Z,8.40
2019-01-23T16:59:00.906Z,8.44
2019-01-23T17:02:06.839Z,8.41
2019-01-23T17:05:16.431Z,8.40
2019-01-23T17:08:22.169Z,8.29
2019-01-23T17:11:28.988Z,8.26
2019-01-23T17:14:35.074Z,8.29
2019-01-23T17:17:40.906Z,8.19
2019-01-23T17:20:49.095Z,8.11
2019-01-23T17:23:54.911Z,8.39
2019-01-23T17:27:00.633Z,8.58
2019-01-23T17:30:08.400Z,8.39
2019-01-23T17:33:15.239Z,8.27
2019-01-23T17:36:20.939Z,8.52
2019-01-23T17:39:26.759Z,8.60
2019-01-23T17:42:32.693Z,8.05
2019-01-23T17:45:39.855Z,8.08
2019-01-23T17:48:45.669Z,8.10
2019-01-23T17:51:51.386Z,8.27
2019-01-23T17:54:57.085Z,8.44
2019-01-23T17:58:02.960Z,7.84
2019-01-23T18:01:09.069Z,8.21
2019-01-23T18:04:14.754Z,8.22
2019-01-23T18:07:20.585Z,8.11
2019-01-23T18:10:26.518Z,8.30
2019-01-23T18:13:32.263Z,8.30
2019-01-23T18:16:37.992Z,8.26
2019-01-23T18:19:43.703Z,8.05
2019-01-23T18:22:49.436Z,8.11
2019-01-23T18:25:55.146Z,8.16
2019-01-23T18:29:00.887Z,8.08
2019-01-23T18:32:09.217Z,8.21
2019-01-23T18:36:14.517Z,8.31
2019-01-23T18:39:46.605Z,8.17
2019-01-23T18:43:17.096Z,7.58
2019-01-23T18:47:15.405Z,7.93
2019-01-23T18:50:54.141Z,8.24
2019-01-23T18:53:59.960Z,8.04
2019-01-23T18:57:06.123Z,8.29
2019-01-23T19:00:16.045Z,8.36
2019-01-23T19:03:21.884Z,8.03
2019-01-23T19:06:27.739Z,8.03
2019-01-23T19:09:33.688Z,8.18
2019-01-23T19:12:39.530Z,8.07
2019-01-23T19:15:45.248Z,8.07
2019-01-23T19:18:50.977Z,8.07
2019-01-23T19:21:56.908Z,7.90
2019-01-23T19:25:02.634Z,7.87
2019-01-23T19:28:08.584Z,7.75
2019-01-23T19:31:14.336Z,8.10
2019-01-23T19:34:20.059Z,8.24
2019-01-23T19:37:25.877Z,8.23
2019-01-23T19:40:31.685Z,8.24
2019-01-23T19:43:37.624Z,8.28
2019-01-23T19:46:43.452Z,8.33
2019-01-23T19:49:49.487Z,8.36
2019-01-23T19:52:55.378Z,7.93
2019-01-23T19:56:01.244Z,8.05
2019-01-23T19:59:07.192Z,8.28
2019-01-23T20:02:13.189Z,8.35
2019-01-23T20:05:22.568Z,8.31
2019-01-23T20:08:28.390Z,8.27
2019-01-23T20:11:34.104Z,8.23
2019-01-23T20:14:39.959Z,7.81
2019-01-23T20:17:45.777Z,8.27
2019-01-23T20:20:52.574Z,8.17
2019-01-23T20:23:58.285Z,8.27
2019-01-23T20:27:04.425Z,8.41
2019-01-23T20:30:16.604Z,8.32
2019-01-23T20:33:27.899Z,8.45
2019-01-23T20:36:29.840Z,8.36
2019-01-23T20:39:35.578Z,8.07
2019-01-23T20:42:41.382Z,8.06
2019-01-23T20:45:47.113Z,7.78
2019-01-23T20:48:52.930Z,8.02
2019-01-23T20:51:58.664Z,7.56
2019-01-23T20:55:04.981Z,7.70
2019-01-23T20:58:10.826Z,7.95
2019-01-23T21:01:16.543Z,7.94
2019-01-23T21:04:22.358Z,7.75
2019-01-23T21:07:28.071Z,8.02
2019-01-23T21:10:34.001Z,7.98
2019-01-23T21:13:39.726Z,8.13
2019-01-23T21:16:45.445Z,7.88
2019-01-23T21:19:51.170Z,7.99
2019-01-23T21:22:57.068Z,8.00
2019-01-23T21:26:02.808Z,8.23
2019-01-23T21:29:08.526Z,8.42
2019-01-23T21:32:14.229Z,8.51
2019-01-23T21:35:20.431Z,8.55
2019-01-23T21:38:27.132Z,8.52
2019-01-23T21:41:32.839Z,8.52
2019-01-23T21:44:38.559Z,8.58
2019-01-23T21:47:44.669Z,7.97
2019-01-23T21:50:50.457Z,8.16
2019-01-23T21:53:56.188Z,8.17
2019-01-23T21:57:02.004Z,7.98
2019-01-23T22:00:12.450Z,8.08
2019-01-23T22:03:19.240Z,8.00
2019-01-23T22:06:25.065Z,8.11
2019-01-23T22:09:30.876Z,8.18
2019-01-23T22:12:36.707Z,8.45
2019-01-23T22:15:42.634Z,8.49
2019-01-23T22:18:48.374Z,8.18
2019-01-23T22:21:54.249Z,8.33
2019-01-23T22:24:59.982Z,8.53
2019-01-23T22:28:06.065Z,8.02
2019-01-23T22:31:11.982Z,8.22
2019-01-23T22:34:17.873Z,8.42
2019-01-23T22:37:23.624Z,8.40
2019-01-23T22:40:29.373Z,8.40
2019-01-23T22:43:35.111Z,8.36
2019-01-23T22:46:40.813Z,8.18
2019-01-23T22:49:46.537Z,8.31
2019-01-23T22:52:52.495Z,8.37
2019-01-23T22:55:58.318Z,8.28
2019-01-23T22:59:04.134Z,7.98
2019-01-23T23:02:09.998Z,8.44
2019-01-23T23:05:15.720Z,8.61
2019-01-23T23:08:21.436Z,8.55
2019-01-23T23:11:27.338Z,8.63
2019-01-23T23:14:33.162Z,8.56
2019-01-23T23:17:38.985Z,8.63
2019-01-23T23:20:44.675Z,8.46
2019-01-23T23:23:50.492Z,8.59
2019-01-23T23:26:56.315Z,8.66
2019-01-23T23:30:02.153Z,8.49
2019-01-23T23:33:07.966Z,8.34
2019-01-23T23:36:13.718Z,8.25
2019-01-23T23:39:19.509Z,8.00
2019-01-23T23:42:25.315Z,8.26
2019-01-23T23:45:31.043Z,8.08
2019-01-23T23:48:36.777Z,8.25
2019-01-23T23:51:42.473Z,8.27
2019-01-23T23:54:48.167Z,8.10
2019-01-23T23:57:53.980Z,8.26
